Time;durP1;ratioP1;P1;durP2;ratioP2;P2;SDS_P1;SDS_P2;PMS_P1;PMS_P2;Temp;Humidity;BMP_temperature;BMP_pressure;BME280_temperature;BME280_humidity;BME280_pressure;Samples;Min_cycle;Max_cycle;Signal;HPM_P1;HPM_P2
2021/06/07 00:01:24;;;;;;;10.23;7.27;;;;;;;16.88;65.00;100849.81;3546368;80;98501;-95
2021/06/07 00:06:26;;;;;;;11.85;7.67;;;;;;;16.83;65.29;100858.00;3539301;81;34783;-96
2021/06/07 00:11:27;;;;;;;11.03;7.17;;;;;;;16.78;65.03;100851.48;3541842;81;98518;-96
2021/06/07 00:16:30;;;;;;;10.40;6.67;;;;;;;16.73;65.26;100853.92;3543666;81;34807;-96
2021/06/07 00:21:32;;;;;;;18.17;8.15;;;;;;;16.68;65.43;100850.19;3529315;81;98285;-96
2021/06/07 00:26:33;;;;;;;12.17;8.20;;;;;;;16.60;65.68;100850.83;3543863;81;34563;-96
2021/06/07 00:31:36;;;;;;;11.70;7.75;;;;;;;16.68;66.19;100852.96;3562653;80;98772;-94
2021/06/07 00:36:39;;;;;;;12.70;8.58;;;;;;;16.70;65.51;100852.75;3569850;81;34804;-96
2021/06/07 00:41:44;;;;;;;12.63;8.20;;;;;;;16.74;65.55;100862.45;3539822;81;98627;-96
2021/06/07 00:46:46;;;;;;;12.27;7.90;;;;;;;16.70;65.53;100858.89;3574649;80;26469;-96
2021/06/07 00:51:49;;;;;;;13.50;8.95;;;;;;;16.67;65.49;100860.50;3507198;81;98624;-96
2021/06/07 00:56:51;;;;;;;16.82;8.83;;;;;;;16.64;65.38;100857.75;3501546;82;34881;-96
2021/06/07 01:01:52;;;;;;;12.90;8.13;;;;;;;16.63;65.55;100856.94;3479519;82;98547;-96
2021/06/07 01:06:53;;;;;;;15.20;9.75;;;;;;;16.62;65.74;100849.03;3508195;82;32985;-95
2021/06/07 01:11:54;;;;;;;14.07;9.33;;;;;;;16.64;66.87;100848.82;3504378;78;98509;-95
2021/06/07 01:16:55;;;;;;;14.83;10.32;;;;;;;16.67;66.49;100845.83;3510607;82;32007;-96
2021/06/07 01:22:04;;;;;;;15.40;10.38;;;;;;;16.67;66.86;100843.05;3491131;81;99193;-96
2021/06/07 01:27:08;;;;;;;14.95;10.32;;;;;;;16.69;67.07;100846.20;3506461;82;35975;-92
2021/06/07 01:32:09;;;;;;;15.28;10.35;;;;;;;16.70;67.58;100847.19;3497118;78;99044;-96
2021/06/07 01:37:10;;;;;;;15.55;9.65;;;;;;;16.70;67.10;100842.21;3505882;82;34844;-96
2021/06/07 01:42:11;;;;;;;18.75;10.93;;;;;;;16.68;66.93;100849.56;3493340;82;98934;-96
2021/06/07 01:47:12;;;;;;;15.35;9.95;;;;;;;16.67;67.43;100853.55;3510188;82;33619;-96
2021/06/07 01:52:14;;;;;;;15.98;10.30;;;;;;;16.58;67.20;100839.92;3500837;82;98542;-95
2021/06/07 01:57:16;;;;;;;15.83;9.93;;;;;;;16.65;67.44;100853.77;3512920;82;33938;-95
2021/06/07 02:02:17;;;;;;;13.50;9.85;;;;;;;16.65;67.28;100850.98;3513105;80;98736;-96
2021/06/07 02:07:24;;;;;;;17.10;10.90;;;;;;;16.62;67.03;100851.20;3504614;82;33630;-96
2021/06/07 02:12:25;;;;;;;18.25;10.03;;;;;;;16.59;67.19;100852.03;3501400;80;98708;-93
2021/06/07 02:17:26;;;;;;;15.17;9.97;;;;;;;16.50;67.20;100839.17;3515447;81;34218;-95
2021/06/07 02:22:28;;;;;;;16.00;10.58;;;;;;;16.52;67.11;100847.11;3493663;80;98873;-93
2021/06/07 02:27:39;;;;;;;16.37;10.75;;;;;;;16.46;69.45;100849.52;3502279;81;34905;-96
2021/06/07 02:32:42;;;;;;;16.27;11.03;;;;;;;16.40;67.53;100844.19;3508857;81;34953;-95
2021/06/07 02:37:45;;;;;;;14.38;10.43;;;;;;;16.36;67.55;100848.94;3507601;81;99141;-96
2021/06/07 02:42:48;;;;;;;15.58;11.57;;;;;;;16.31;67.76;100848.01;3522987;81;34838;-96
2021/06/07 02:47:53;;;;;;;15.00;11.35;;;;;;;16.26;67.98;100849.02;3502175;81;99026;-96
2021/06/07 02:52:54;;;;;;;16.97;10.80;;;;;;;16.22;67.87;100846.84;3524654;81;98554;-93
2021/06/07 02:58:01;;;;;;;14.63;9.30;;;;;;;16.18;67.89;100851.03;3495845;80;98853;-94
2021/06/07 03:03:05;;;;;;;16.52;10.28;;;;;;;16.15;67.75;100853.25;3503594;82;34843;-93
2021/06/07 03:08:08;;;;;;;14.18;9.95;;;;;;;16.11;67.95;100850.27;3499272;80;99205;-93
2021/06/07 03:13:09;;;;;;;18.00;11.33;;;;;;;16.04;68.14;100845.56;3498396;82;34849;-93
2021/06/07 03:18:13;;;;;;;17.75;10.45;;;;;;;16.02;68.09;100842.38;3498608;81;99196;-95
2021/06/07 03:23:18;;;;;;;17.27;10.43;;;;;;;15.97;68.70;100846.95;3516274;81;35327;-95
2021/06/07 03:28:20;;;;;;;18.12;10.85;;;;;;;15.94;68.93;100841.42;3498689;81;99002;-95
2021/06/07 03:33:24;;;;;;;17.42;11.22;;;;;;;15.91;69.05;100845.02;3518028;81;34891;-93
2021/06/07 03:38:28;;;;;;;17.73;11.08;;;;;;;15.89;69.03;100844.03;3502745;80;98922;-96
2021/06/07 03:43:35;;;;;;;15.80;10.08;;;;;;;15.87;69.67;100849.17;3501717;81;34872;-95
2021/06/07 03:48:36;;;;;;;16.05;10.68;;;;;;;15.86;69.74;100839.27;3502837;81;99325;-95
2021/06/07 03:53:41;;;;;;;18.77;10.47;;;;;;;15.84;70.03;100841.67;3502812;82;31107;-95
2021/06/07 03:58:42;;;;;;;14.60;9.45;;;;;;;15.85;70.08;100847.99;3506384;79;98927;-96
2021/06/07 04:03:43;;;;;;;15.53;10.30;;;;;;;15.85;70.11;100848.80;3532710;80;34884;-94
2021/06/07 04:08:44;;;;;;;13.62;9.10;;;;;;;15.91;69.93;100852.73;3484631;81;99240;-91
2021/06/07 04:13:45;;;;;;;14.13;8.97;;;;;;;15.98;69.73;100856.86;3519347;81;29729;-94
2021/06/07 04:18:46;;;;;;;18.97;9.93;;;;;;;16.06;69.80;100853.47;3508686;81;99231;-95
2021/06/07 04:23:47;;;;;;;12.97;9.23;;;;;;;16.15;69.90;100856.02;3509233;81;25395;-96
2021/06/07 04:28:52;;;;;;;14.73;8.60;;;;;;;16.23;69.93;100852.00;3520981;80;99052;-96
2021/06/07 04:33:57;;;;;;;15.75;8.90;;;;;;;16.33;69.75;100852.55;3488314;81;35004;-94
2021/06/07 04:39:10;;;;;;;12.77;8.60;;;;;;;16.44;69.82;100844.97;3498981;80;98701;-96
2021/06/07 04:44:15;;;;;;;12.93;8.00;;;;;;;16.57;69.51;100849.46;3508163;82;34833;-96
2021/06/07 04:49:18;;;;;;;14.68;8.70;;;;;;;16.69;69.20;100851.75;3502583;80;99043;-95
2021/06/07 04:54:21;;;;;;;13.70;8.58;;;;;;;16.87;68.82;100862.14;3506401;81;34892;-95
2021/06/07 04:59:34;;;;;;;17.67;8.00;;;;;;;17.02;68.69;100864.42;3496434;80;98770;-93
2021/06/07 05:04:47;;;;;;;14.85;7.72;;;;;;;17.24;68.09;100867.80;3508917;81;26420;-92
2021/06/07 05:09:48;;;;;;;19.12;8.45;;;;;;;17.44;67.99;100870.23;3503527;81;99458;-94
2021/06/07 05:14:49;;;;;;;13.45;8.28;;;;;;;17.68;67.68;100869.17;3504344;82;34994;-96
2021/06/07 05:19:50;;;;;;;24.77;10.03;;;;;;;18.03;67.70;100862.59;3498912;82;98734;-93
2021/06/07 05:24:51;;;;;;;13.05;8.58;;;;;;;18.54;66.96;100863.71;3501765;81;32979;-95
2021/06/07 05:29:59;;;;;;;13.25;7.78;;;;;;;19.09;65.57;100862.67;3507250;80;98985;-96
2021/06/07 05:35:00;;;;;;;18.55;8.08;;;;;;;19.65;64.99;100867.28;3504635;81;35074;-95
2021/06/07 05:40:06;;;;;;;15.63;7.55;;;;;;;20.39;64.12;100865.16;3502977;82;98697;-90
2021/06/07 05:45:08;;;;;;;;;;;;;;;21.16;62.01;100868.98;3511067;81;26067;-96
2021/06/07 05:50:14;;;;;;;14.87;7.65;;;;;;;21.84;60.35;100872.98;3510617;79;84765;-94
2021/06/07 05:55:23;;;;;;;14.73;7.12;;;;;;;22.65;58.79;100879.20;3567602;80;35391;-93
2021/06/07 06:00:27;;;;;;;13.10;7.15;;;;;;;23.24;57.43;100873.70;3561842;78;99386;-95
2021/06/07 06:05:28;;;;;;;11.77;7.20;;;;;;;23.92;55.62;100887.77;3562932;80;29711;-91
2021/06/07 06:10:30;;;;;;;11.08;6.40;;;;;;;24.55;53.58;100887.41;3550679;79;98699;-94
2021/06/07 06:15:31;;;;;;;19.00;6.87;;;;;;;24.92;51.78;100884.34;3568700;80;34887;-90
2021/06/07 06:20:33;;;;;;;12.35;7.22;;;;;;;25.40;50.93;100887.77;3561437;81;99182;-89
2021/06/07 06:25:33;;;;;;;19.23;7.47;;;;;;;25.76;49.59;100888.43;3562114;80;34942;-87
2021/06/07 06:30:34;;;;;;;19.15;7.72;;;;;;;26.19;47.98;100886.09;3564199;80;99213;-87
2021/06/07 06:35:36;;;;;;;12.65;6.12;;;;;;;26.58;46.74;100885.70;3559272;81;35569;-88
2021/06/07 06:40:49;;;;;;;;;;;;;;;;;;;;;
2021/06/07 06:45:42;;;;;;;12.28;6.17;;;;;;;27.67;45.35;100876.20;3558173;81;26075;-87
2021/06/07 06:50:44;;;;;;;9.30;5.58;;;;;;;27.87;44.48;100886.29;3546598;78;99205;-90
2021/06/07 06:55:47;;;;;;;11.80;5.72;;;;;;;28.27;44.09;100882.94;3495567;82;26092;-91
2021/06/07 07:00:49;;;;;;;13.85;5.90;;;;;;;28.71;43.40;100887.98;3489857;80;98877;-86
2021/06/07 07:05:50;;;;;;;22.73;6.72;;;;;;;28.82;42.47;100884.67;3497075;81;25859;-89
2021/06/07 07:10:51;;;;;;;14.03;5.80;;;;;;;29.30;42.15;100891.61;3496748;81;99070;-91
2021/06/07 07:15:52;;;;;;;14.55;6.00;;;;;;;29.78;40.67;100892.00;3495908;81;34943;-91
2021/06/07 07:20:53;;;;;;;10.43;5.28;;;;;;;29.91;38.81;100894.62;3490348;81;98731;-89
2021/06/07 07:25:54;;;;;;;7.78;5.15;;;;;;;30.27;37.58;100901.75;3522224;80;34970;-87
2021/06/07 07:30:56;;;;;;;13.88;5.28;;;;;;;30.16;36.95;100894.53;3494560;81;100996;-90
2021/06/07 07:35:56;;;;;;;13.95;5.30;;;;;;;30.53;36.57;100895.42;3500745;82;34894;-90
2021/06/07 07:40:57;;;;;;;12.20;5.12;;;;;;;31.00;36.68;100897.66;3487603;82;99177;-90
2021/06/07 07:46:03;;;;;;;8.53;4.50;;;;;;;31.75;34.90;100897.22;3498497;82;34849;-88
2021/06/07 07:51:01;;;;;;;11.83;4.53;;;;;;;32.16;34.91;100892.70;3474408;80;100603;-87
2021/06/07 07:56:03;;;;;;;10.65;4.83;;;;;;;32.67;34.53;100896.53;3443605;83;26573;-87
2021/06/07 08:01:05;;;;;;;17.07;5.97;;;;;;;32.95;32.95;100887.97;3433615;80;98756;-90
2021/06/07 08:06:05;;;;;;;11.43;5.55;;;;;;;33.35;32.90;100878.86;3441670;83;26017;-89
2021/06/07 08:11:06;;;;;;;9.50;5.03;;;;;;;33.69;32.59;100888.20;3427224;83;99187;-90
2021/06/07 08:16:08;;;;;;;8.58;4.58;;;;;;;33.87;31.78;100885.41;3436900;83;25991;-90
2021/06/07 08:21:09;;;;;;;9.20;4.90;;;;;;;34.32;31.99;100888.17;3420844;82;98732;-89
2021/06/07 08:26:10;;;;;;;8.63;4.42;;;;;;;33.99;30.76;100889.78;3431992;83;25941;-88
2021/06/07 08:31:10;;;;;;;8.40;4.03;;;;;;;34.15;29.81;100888.23;3425859;83;98842;-87
2021/06/07 08:36:11;;;;;;;9.88;4.20;;;;;;;34.21;30.58;100883.93;3433813;82;25451;-89
2021/06/07 08:41:13;;;;;;;16.37;5.70;;;;;;;35.14;30.05;100878.12;3430449;83;99179;-89
2021/06/07 08:46:14;;;;;;;11.50;5.22;;;;;;;35.70;28.97;100888.41;3436957;83;33558;-87
2021/06/07 08:51:17;;;;;;;10.63;4.25;;;;;;;36.15;28.07;100882.20;3461053;81;98680;-89
2021/06/07 08:56:18;;;;;;;;;;;;;;;36.38;27.61;100884.87;3571918;80;26337;-88
2021/06/07 09:01:19;;;;;;;10.23;4.33;;;;;;;36.90;26.60;100873.60;3568619;81;85091;-89
2021/06/07 09:06:31;;;;;;;10.32;4.47;;;;;;;36.79;26.90;100876.67;3566185;81;25855;-86
2021/06/07 09:11:47;;;;;;;10.28;4.37;;;;;;;36.88;27.79;100886.27;3529763;81;98595;-85
2021/06/07 09:16:49;;;;;;;12.07;4.75;;;;;;;36.34;25.80;100882.22;3534315;81;26322;-86
2021/06/07 09:21:51;;;;;;;7.95;4.20;;;;;;;36.32;27.06;100875.59;3562020;80;98604;-86
2021/06/07 09:26:52;;;;;;;5.45;4.05;;;;;;;36.80;26.67;100867.39;3565999;81;25866;-87
2021/06/07 09:31:56;;;;;;;7.08;4.35;;;;;;;36.83;26.88;100869.92;3561291;78;98761;-92
2021/06/07 09:37:05;;;;;;;9.73;3.92;;;;;;;36.08;26.20;100872.78;3565766;81;26500;-88
2021/06/07 09:42:09;;;;;;;9.00;4.12;;;;;;;35.80;26.64;100866.67;3562237;80;98799;-88
2021/06/07 09:47:28;;;;;;;5.90;4.00;;;;;;;35.33;26.86;100871.16;3566803;81;25944;-88
2021/06/07 09:52:44;;;;;;;7.15;4.20;;;;;;;34.58;27.56;100872.74;3566127;81;98740;-86
2021/06/07 09:57:52;;;;;;;9.68;4.67;;;;;;;35.07;28.49;100872.32;3554234;81;98806;-88
2021/06/07 10:02:53;;;;;;;10.00;4.83;;;;;;;35.08;28.22;100868.81;3545802;81;26514;-88
2021/06/07 10:07:54;;;;;;;7.20;4.50;;;;;;;35.16;27.82;100870.55;3562403;81;99194;-86
2021/06/07 10:13:00;;;;;;;6.83;4.37;;;;;;;34.89;28.11;100873.03;3566332;81;26448;-86
2021/06/07 10:18:06;;;;;;;12.18;4.03;;;;;;;34.72;27.73;100868.09;3558317;80;98939;-88
2021/06/07 10:23:07;;;;;;;8.05;4.35;;;;;;;35.02;27.97;100870.94;3574197;81;25996;-85
2021/06/07 10:28:08;;;;;;;8.58;4.45;;;;;;;35.50;28.49;100873.17;3562634;81;98662;-90
2021/06/07 10:33:31;;;;;;;8.35;4.37;;;;;;;35.95;28.09;100870.53;3567617;81;25915;-86
2021/06/07 10:38:34;;;;;;;5.97;4.15;;;;;;;36.24;27.48;100868.17;3559796;80;98721;-88
2021/06/07 10:43:49;;;;;;;7.40;4.47;;;;;;;36.86;28.27;100873.14;3570771;80;25980;-89
2021/06/07 10:48:52;;;;;;;8.15;4.28;;;;;;;37.08;26.84;100869.08;3567329;78;98488;-85
2021/06/07 10:54:14;;;;;;;9.18;4.47;;;;;;;37.77;26.54;100860.94;3530060;80;26189;-87
2021/06/07 10:59:15;;;;;;;7.92;4.25;;;;;;;38.33;26.38;100855.47;3497423;81;98689;-84
2021/06/07 11:04:36;;;;;;;9.03;4.33;;;;;;;38.51;25.73;100854.55;3501591;81;25828;-85
2021/06/07 11:10:12;;;;;;;6.03;4.10;;;;;;;37.75;25.32;100848.56;3504051;77;98973;-86
2021/06/07 11:15:21;;;;;;;9.63;4.62;;;;;;;37.62;25.70;100849.24;3509469;81;26058;-88
2021/06/07 11:20:36;;;;;;;8.50;4.28;;;;;;;36.76;26.17;100855.45;3506685;81;98961;-88
2021/06/07 11:25:51;;;;;;;8.40;3.85;;;;;;;36.48;26.38;100846.52;3508182;81;26543;-86
2021/06/07 11:30:52;;;;;;;6.90;4.28;;;;;;;36.48;26.71;100852.26;3497608;81;98927;-89
2021/06/07 11:35:54;;;;;;;7.75;3.98;;;;;;;36.24;26.72;100845.99;3502603;82;25884;-86
2021/06/07 11:40:57;;;;;;;6.97;4.28;;;;;;;35.56;27.38;100842.38;3497390;80;99093;-86
2021/06/07 11:45:58;;;;;;;8.53;4.65;;;;;;;35.59;28.43;100835.58;3501114;82;25874;-86
2021/06/07 11:51:10;;;;;;;6.30;4.28;;;;;;;36.23;27.24;100828.69;3491903;81;98952;-85
2021/06/07 11:56:13;;;;;;;9.13;4.15;;;;;;;36.30;27.55;100830.16;3464327;83;25382;-85
2021/06/07 12:01:14;;;;;;;7.22;5.10;;;;;;;36.39;26.61;100829.07;3479690;80;98735;-90
2021/06/07 12:06:16;;;;;;;6.30;3.70;;;;;;;36.79;26.94;100825.03;3488907;83;27525;-88
2021/06/07 12:11:22;;;;;;;9.13;4.67;;;;;;;37.28;25.78;100811.05;3480566;81;98655;-86
2021/06/07 12:16:24;;;;;;;6.28;4.30;;;;;;;37.59;26.47;100810.91;3485833;82;42924;-87
2021/06/07 12:21:31;;;;;;;10.60;4.92;;;;;;;37.51;25.22;100798.53;3484749;81;98491;-87
2021/06/07 12:32:21;;;;;;;9.13;4.45;;;;;;;37.31;25.85;100800.66;3479667;80;98556;-89
2021/06/07 12:37:31;;;;;;;6.05;4.80;;;;;;;37.58;25.21;100796.45;3497286;82;25924;-87
2021/06/07 12:42:34;;;;;;;10.13;4.80;;;;;;;37.36;24.73;100787.50;3491943;82;98596;-85
2021/06/07 12:47:35;;;;;;;5.92;4.15;;;;;;;36.90;25.65;100792.47;3495609;81;25927;-85
2021/06/07 12:52:37;;;;;;;7.55;3.87;;;;;;;36.92;24.67;100789.16;3493121;81;98628;-87
2021/06/07 12:57:38;;;;;;;5.87;3.60;;;;;;;36.56;25.50;100798.69;3507886;82;25888;-86
2021/06/07 13:02:39;;;;;;;6.70;4.00;;;;;;;36.16;25.06;100794.89;3474721;82;98633;-88
2021/06/07 13:07:40;;;;;;;6.22;4.00;;;;;;;35.83;25.08;100793.20;3504687;81;98230;-87
2021/06/07 13:12:40;;;;;;;6.58;4.00;;;;;;;35.42;25.89;100783.45;3523257;81;25751;-86
2021/06/07 13:17:41;;;;;;;7.47;4.08;;;;;;;34.46;25.32;100780.60;3513419;80;98983;-87
2021/06/07 13:22:42;;;;;;;10.43;4.22;;;;;;;34.12;27.38;100788.52;3514605;80;25921;-87
2021/06/07 13:27:43;;;;;;;9.43;4.17;;;;;;;34.30;27.31;100778.66;3502983;82;99150;-86
2021/06/07 13:32:44;;;;;;;6.67;3.80;;;;;;;34.50;26.52;100773.16;3512236;82;34685;-88
2021/06/07 13:37:51;;;;;;;6.08;4.12;;;;;;;34.31;27.20;100776.56;3505647;81;99012;-85
2021/06/07 13:43:05;;;;;;;6.50;4.47;;;;;;;33.69;26.83;100770.35;3514159;81;27424;-87
2021/06/07 13:48:15;;;;;;;9.37;5.03;;;;;;;33.39;27.50;100762.36;3507703;80;98760;-84
2021/06/07 13:53:17;;;;;;;7.10;4.67;;;;;;;33.64;26.99;100762.59;3437461;83;28920;-84
2021/06/07 13:58:21;;;;;;;10.30;4.60;;;;;;;33.67;27.51;100759.45;3368360;84;99027;-86
2021/06/07 14:03:24;;;;;;;;;;;;;;;33.59;27.22;100760.55;3435332;83;27559;-86
2021/06/07 14:08:39;;;;;;;10.75;4.65;;;;;;;33.76;28.39;100749.16;3413097;84;85054;-87
2021/06/07 14:13:41;;;;;;;5.80;4.28;;;;;;;33.84;27.84;100755.86;3427887;84;28510;-88
2021/06/07 14:18:42;;;;;;;7.03;4.33;;;;;;;33.82;28.54;100744.84;3444096;84;98977;-88
2021/06/07 14:29:03;;;;;;;7.10;4.42;;;;;;;33.95;28.26;100750.07;3416883;84;98870;-86
2021/06/07 14:34:04;;;;;;;8.90;4.62;;;;;;;34.32;29.24;100738.88;3420441;84;28312;-89
2021/06/07 14:39:05;;;;;;;6.87;4.17;;;;;;;34.42;28.28;100738.66;3407006;82;98899;-87
2021/06/07 14:44:06;;;;;;;6.22;4.00;;;;;;;34.40;27.02;100738.44;3422188;84;26005;-91
2021/06/07 14:49:07;;;;;;;7.75;4.20;;;;;;;34.20;26.69;100726.62;3417610;84;98883;-92
2021/06/07 14:54:08;;;;;;;7.33;3.90;;;;;;;33.79;27.28;100727.36;3430414;84;25991;-91
2021/06/07 14:59:09;;;;;;;8.53;4.20;;;;;;;33.47;27.75;100721.96;3422999;82;98590;-87
2021/06/07 15:04:10;;;;;;;6.20;3.87;;;;;;;33.30;27.53;100716.33;3452678;84;33350;-88
2021/06/07 15:09:11;;;;;;;7.35;4.33;;;;;;;32.97;28.25;100717.89;3448884;82;98678;-90
2021/06/07 15:14:12;;;;;;;6.62;4.47;;;;;;;32.89;27.46;100712.61;3455696;83;32467;-88
2021/06/07 15:19:13;;;;;;;6.78;4.40;;;;;;;32.81;27.87;100710.17;3449465;83;98939;-89
2021/06/07 15:24:16;;;;;;;6.75;4.55;;;;;;;32.71;28.41;100703.20;3421559;83;32494;-91
2021/06/07 15:29:19;;;;;;;9.98;4.47;;;;;;;32.47;27.88;100690.83;3440617;83;98946;-90
2021/06/07 15:34:23;;;;;;;5.60;4.00;;;;;;;32.38;27.90;100689.67;3400062;84;26051;-89
2021/06/07 15:39:25;;;;;;;6.00;4.05;;;;;;;32.18;28.82;100687.86;3424071;82;98843;-88
2021/06/07 15:44:27;;;;;;;7.00;3.65;;;;;;;32.01;29.57;100687.10;3448439;83;27560;-88
2021/06/07 15:49:30;;;;;;;6.75;4.30;;;;;;;31.90;30.01;100685.67;3511086;81;98407;-91
2021/06/07 15:54:30;;;;;;;7.03;4.20;;;;;;;31.29;29.75;100680.53;3503019;81;26213;-89
2021/06/07 15:59:31;;;;;;;7.12;4.22;;;;;;;30.86;30.61;100682.53;3479635;81;98837;-91
2021/06/07 16:04:32;;;;;;;7.60;3.85;;;;;;;30.69;31.42;100676.80;3493612;82;32451;-90
2021/06/07 16:09:33;;;;;;;7.20;4.22;;;;;;;30.31;30.96;100673.69;3478354;82;99115;-90
2021/06/07 16:14:34;;;;;;;14.73;6.87;;;;;;;29.86;31.17;100673.20;3482857;82;32478;-91
2021/06/07 16:19:50;;;;;;;7.83;4.67;;;;;;;29.72;31.22;100667.00;3401483;84;99183;-92
2021/06/07 16:24:40;;;;;;;8.15;4.97;;;;;;;29.49;31.53;100665.22;3411559;83;26124;-89
2021/06/07 16:29:42;;;;;;;5.92;4.03;;;;;;;29.27;32.51;100662.92;3415091;84;98772;-90
2021/06/07 16:34:43;;;;;;;9.08;4.90;;;;;;;29.15;32.59;100660.48;3421666;83;32654;-88
2021/06/07 16:39:44;;;;;;;7.72;4.33;;;;;;;29.04;32.75;100663.96;3404930;83;98864;-89
2021/06/07 16:44:45;;;;;;;6.83;3.27;;;;;;;28.82;32.83;100663.66;3418338;84;33286;-88
2021/06/07 16:49:45;;;;;;;4.22;2.75;;;;;;;28.32;32.48;100663.61;3411245;84;98922;-87
2021/06/07 16:54:46;;;;;;;5.75;2.72;;;;;;;27.98;31.30;100666.41;3428287;84;33159;-90
2021/06/07 16:59:48;;;;;;;5.53;2.80;;;;;;;27.73;31.58;100665.60;3422359;83;99087;-90
2021/06/07 17:04:49;;;;;;;7.87;3.27;;;;;;;27.47;31.82;100663.20;3430972;83;32476;-89
2021/06/07 17:09:50;;;;;;;5.90;2.47;;;;;;;27.31;32.38;100664.44;3429792;82;98663;-88
2021/06/07 17:14:51;;;;;;;3.92;2.50;;;;;;;27.08;31.91;100668.73;3431538;84;32452;-89
2021/06/07 17:19:52;;;;;;;4.83;2.70;;;;;;;26.80;32.08;100668.16;3427095;83;99018;-89
2021/06/07 17:24:53;;;;;;;3.95;2.50;;;;;;;26.67;32.41;100671.88;3420484;84;26163;-89
2021/06/07 17:29:53;;;;;;;5.62;3.00;;;;;;;26.53;32.63;100669.72;3426970;83;98948;-88
2021/06/07 17:34:55;;;;;;;6.40;3.02;;;;;;;26.43;33.38;100674.51;3435785;83;25919;-92
2021/06/07 17:39:55;;;;;;;5.53;2.65;;;;;;;26.28;33.74;100675.84;3428133;81;98972;-90
2021/06/07 17:44:56;;;;;;;7.50;3.12;;;;;;;26.15;33.70;100677.33;3437665;83;25912;-89
2021/06/07 17:49:57;;;;;;;4.92;2.90;;;;;;;26.01;34.15;100674.56;3428141;83;98950;-89
2021/06/07 17:54:58;;;;;;;5.90;3.25;;;;;;;25.89;35.08;100683.95;3433909;84;26010;-90
2021/06/07 18:00:02;;;;;;;4.45;2.67;;;;;;;25.74;35.44;100680.87;3491805;82;98987;-89
2021/06/07 18:05:04;;;;;;;5.97;2.87;;;;;;;25.55;36.11;100683.61;3520572;82;26314;-90
2021/06/07 18:10:06;;;;;;;5.67;2.70;;;;;;;25.39;36.57;100687.53;3511465;82;98920;-90
2021/06/07 18:15:08;;;;;;;5.40;2.70;;;;;;;25.19;37.00;100690.04;3443584;84;27087;-90
2021/06/07 18:20:09;;;;;;;9.30;3.22;;;;;;;24.99;38.00;100688.31;3435041;82;98864;-91
2021/06/07 18:25:13;;;;;;;6.92;3.12;;;;;;;24.74;38.87;100692.05;3444573;83;25876;-90
2021/06/07 18:30:16;;;;;;;8.38;3.62;;;;;;;24.46;39.87;100695.38;3410164;82;98820;-89
2021/06/07 18:35:17;;;;;;;9.03;4.20;;;;;;;24.18;40.45;100690.92;3443438;84;26476;-90
2021/06/07 18:40:24;;;;;;;12.05;3.58;;;;;;;23.92;40.75;100694.41;3435472;82;98988;-90
2021/06/07 18:45:26;;;;;;;9.25;3.85;;;;;;;23.61;41.48;100702.01;3498380;82;26525;-90
2021/06/07 18:50:27;;;;;;;7.05;3.47;;;;;;;23.32;42.28;100698.06;3491497;82;98767;-91
2021/06/07 18:55:29;;;;;;;6.17;3.37;;;;;;;23.06;43.06;100705.63;3531510;80;25836;-90
2021/06/07 19:00:31;;;;;;;12.03;4.42;;;;;;;22.81;43.92;100704.30;3556434;80;98770;-90
2021/06/07 19:05:32;;;;;;;8.45;4.45;;;;;;;22.64;44.50;100709.89;3564162;81;25931;-90
2021/06/07 19:10:33;;;;;;;11.43;5.70;;;;;;;22.42;44.99;100711.81;3559227;80;99833;-92
2021/06/07 19:15:36;;;;;;;7.93;4.43;;;;;;;22.22;45.19;100716.25;3569405;81;26622;-92
2021/06/07 19:20:46;;;;;;;10.90;5.20;;;;;;;21.97;45.20;100723.88;3563958;79;98842;-92
2021/06/07 19:25:47;;;;;;;9.78;4.83;;;;;;;21.78;46.02;100727.04;3561416;80;26874;-93
2021/06/07 19:30:48;;;;;;;12.23;5.50;;;;;;;21.50;46.10;100730.64;3556640;81;98867;-92
2021/06/07 19:35:49;;;;;;;12.20;5.40;;;;;;;21.32;46.48;100733.17;3570396;81;26605;-93
2021/06/07 19:40:50;;;;;;;10.17;4.83;;;;;;;21.11;46.89;100734.34;3563921;81;99023;-93
2021/06/07 19:45:51;;;;;;;9.38;5.37;;;;;;;20.91;47.18;100737.27;3569110;81;26528;-92
2021/06/07 19:50:54;;;;;;;10.10;4.90;;;;;;;20.71;47.49;100743.55;3564334;80;98848;-91
2021/06/07 19:55:58;;;;;;;10.10;5.60;;;;;;;20.52;48.13;100743.04;3525879;81;26120;-91
2021/06/07 20:00:59;;;;;;;10.78;5.03;;;;;;;20.33;48.79;100745.28;3506235;80;98893;-90
2021/06/07 20:06:00;;;;;;;11.40;5.00;;;;;;;20.13;49.12;100748.77;3513732;82;26407;-90
2021/06/07 20:11:02;;;;;;;14.60;5.60;;;;;;;20.00;49.58;100758.99;3499183;80;99047;-91
2021/06/07 20:16:03;;;;;;;13.73;5.30;;;;;;;19.88;50.40;100758.27;3515276;81;26524;-90
2021/06/07 20:21:04;;;;;;;11.33;5.57;;;;;;;19.69;50.31;100760.48;3500789;82;98885;-90
2021/06/07 20:26:07;;;;;;;12.10;5.27;;;;;;;19.40;51.18;100766.44;3503382;82;26653;-89
2021/06/07 20:31:08;;;;;;;9.95;5.30;;;;;;;19.20;51.97;100776.78;3504403;80;98883;-88
2021/06/07 20:36:10;;;;;;;13.03;4.23;;;;;;;19.04;51.81;100781.45;3503432;82;26466;-88
2021/06/07 20:41:11;;;;;;;7.07;4.13;;;;;;;18.88;51.14;100791.09;3499723;81;98786;-88
2021/06/07 20:46:12;;;;;;;8.17;3.87;;;;;;;18.73;50.93;100796.13;3504981;82;26626;-89
2021/06/07 20:51:13;;;;;;;7.70;3.67;;;;;;;18.62;51.42;100803.06;3497488;81;98980;-90
2021/06/07 20:56:14;;;;;;;9.00;5.13;;;;;;;18.58;51.70;100804.52;3535787;81;34721;-90
2021/06/07 21:01:16;;;;;;;10.63;4.70;;;;;;;18.52;52.40;100805.44;3555819;80;98656;-90
2021/06/07 21:06:17;;;;;;;8.70;4.83;;;;;;;18.49;53.04;100814.04;3562641;81;26566;-89
2021/06/07 21:11:18;;;;;;;9.05;4.75;;;;;;;18.52;53.55;100815.20;3522107;82;98618;-90
2021/06/07 21:16:21;;;;;;;9.77;5.40;;;;;;;18.56;53.92;100812.53;3528043;82;25795;-92
2021/06/07 21:21:22;;;;;;;11.63;5.30;;;;;;;18.62;54.45;100819.20;3520597;82;98540;-91
2021/06/07 21:26:23;;;;;;;9.13;5.03;;;;;;;18.66;54.54;100824.13;3540938;81;25967;-90
2021/06/07 21:31:23;;;;;;;9.43;4.77;;;;;;;18.67;54.52;100822.91;3568020;80;98415;-90
2021/06/07 21:36:24;;;;;;;10.03;4.73;;;;;;;18.72;54.48;100826.63;3568021;81;35816;-90
2021/06/07 21:41:25;;;;;;;7.77;4.70;;;;;;;18.71;54.55;100834.81;3560127;80;98683;-89
2021/06/07 21:46:27;;;;;;;10.60;4.87;;;;;;;18.65;54.38;100830.12;3572452;81;34545;-91
2021/06/07 21:51:28;;;;;;;11.03;4.42;;;;;;;18.69;54.57;100837.83;3544617;80;98933;-91
2021/06/07 21:56:29;;;;;;;9.83;4.70;;;;;;;18.67;54.17;100841.63;3555835;81;33952;-92
2021/06/07 22:01:32;;;;;;;9.73;4.13;;;;;;;18.62;54.24;100847.08;3518737;81;98996;-92
2021/06/07 22:06:44;;;;;;;7.47;3.93;;;;;;;18.60;54.03;100850.91;3513235;82;33186;-96
2021/06/07 22:11:45;;;;;;;7.10;3.67;;;;;;;18.54;54.15;100849.78;3515734;81;98289;-94
2021/06/07 22:16:46;;;;;;;11.23;3.87;;;;;;;18.49;53.88;100850.28;3504257;82;26517;-94
2021/06/07 22:21:47;;;;;;;5.90;3.33;;;;;;;18.44;53.78;100847.16;3515130;80;98946;-95
2021/06/07 22:26:48;;;;;;;9.33;3.43;;;;;;;18.33;53.67;100841.74;3513661;81;33214;-93
2021/06/07 22:31:49;;;;;;;8.03;2.80;;;;;;;18.27;53.57;100851.75;3499152;78;98849;-94
2021/06/07 22:36:51;;;;;;;6.33;3.37;;;;;;;18.22;53.26;100853.61;3494339;82;33353;-94
2021/06/07 22:41:52;;;;;;;8.33;3.40;;;;;;;18.15;53.44;100855.69;3503164;80;98742;-94
2021/06/07 22:46:53;;;;;;;7.37;3.53;;;;;;;18.06;53.52;100856.20;3506261;81;25895;-94
2021/06/07 22:51:55;;;;;;;6.43;3.47;;;;;;;17.97;53.51;100855.10;3502951;79;98688;-95
2021/06/07 22:56:56;;;;;;;7.63;3.33;;;;;;;17.88;53.69;100863.95;3507675;82;33256;-93
2021/06/07 23:01:57;;;;;;;5.70;3.33;;;;;;;17.79;53.81;100858.12;3480957;81;98549;-94
2021/06/07 23:06:59;;;;;;;7.67;3.70;;;;;;;17.72;53.65;100854.63;3491529;81;26572;-96
2021/06/07 23:12:00;;;;;;;7.13;3.43;;;;;;;17.65;53.82;100856.88;3488692;81;99173;-94
2021/06/07 23:17:01;;;;;;;7.70;3.77;;;;;;;17.59;53.90;100844.61;3492769;83;33244;-94
2021/06/07 23:22:02;;;;;;;7.60;3.40;;;;;;;17.56;53.94;100846.81;3489094;81;98495;-94
2021/06/07 23:27:03;;;;;;;6.07;3.07;;;;;;;17.50;53.92;100851.88;3489420;83;33324;-95
2021/06/07 23:32:05;;;;;;;7.23;3.00;;;;;;;17.43;53.96;100853.34;3491871;80;98580;-94